sensor_id;sensor_type;location;lat;lon;timestamp;P1;durP1;ratioP1;P2;durP2;ratioP2
39434;SDS011;66825;51.880;-0.518;2024-03-02T00:00:08;1.52;;;0.60;;
39434;SDS011;66825;51.880;-0.518;2024-03-02T00:02:40;1.38;;;0.68;;
39434;SDS011;66825;51.880;-0.518;2024-03-02T00:05:06;1.13;;;0.60;;
39434;SDS011;66825;51.880;-0.518;2024-03-02T00:07:32;1.50;;;0.77;;
39434;SDS011;66825;51.880;-0.518;2024-03-02T00:09:58;2.40;;;0.90;;
39434;SDS011;66825;51.880;-0.518;2024-03-02T00:12:23;1.60;;;0.60;;
39434;SDS011;66825;51.880;-0.518;2024-03-02T00:14:49;1.75;;;0.75;;
39434;SDS011;66825;51.880;-0.518;2024-03-02T00:17:17;1.98;;;0.80;;
39434;SDS011;66825;51.880;-0.518;2024-03-02T00:19:50;1.92;;;0.80;;
39434;SDS011;66825;51.880;-0.518;2024-03-02T00:22:16;1.63;;;0.93;;
39434;SDS011;66825;51.880;-0.518;2024-03-02T00:24:42;1.52;;;0.70;;
39434;SDS011;66825;51.880;-0.518;2024-03-02T00:27:08;1.92;;;0.70;;
39434;SDS011;66825;51.880;-0.518;2024-03-02T00:29:37;1.23;;;0.67;;
39434;SDS011;66825;51.880;-0.518;2024-03-02T00:32:10;1.20;;;0.63;;
39434;SDS011;66825;51.880;-0.518;2024-03-02T00:34:38;2.55;;;0.88;;
39434;SDS011;66825;51.880;-0.518;2024-03-02T00:37:03;1.58;;;0.80;;
39434;SDS011;66825;51.880;-0.518;2024-03-02T00:39:29;1.17;;;0.60;;
39434;SDS011;66825;51.880;-0.518;2024-03-02T00:41:54;1.40;;;0.77;;
39434;SDS011;66825;51.880;-0.518;2024-03-02T00:44:20;1.65;;;0.80;;
39434;SDS011;66825;51.880;-0.518;2024-03-02T00:46:49;1.88;;;0.80;;
39434;SDS011;66825;51.880;-0.518;2024-03-02T00:51:48;1.33;;;0.60;;
39434;SDS011;66825;51.880;-0.518;2024-03-02T00:54:14;2.13;;;0.90;;
39434;SDS011;66825;51.880;-0.518;2024-03-02T00:56:43;1.52;;;0.73;;
39434;SDS011;66825;51.880;-0.518;2024-03-02T00:59:09;1.00;;;0.63;;
39434;SDS011;66825;51.880;-0.518;2024-03-02T01:01:36;1.90;;;0.73;;
39434;SDS011;66825;51.880;-0.518;2024-03-02T01:04:02;1.00;;;0.65;;
39434;SDS011;66825;51.880;-0.518;2024-03-02T01:06:27;2.50;;;0.70;;
39434;SDS011;66825;51.880;-0.518;2024-03-02T01:08:53;1.67;;;0.75;;
39434;SDS011;66825;51.880;-0.518;2024-03-02T01:11:18;1.88;;;0.60;;
39434;SDS011;66825;51.880;-0.518;2024-03-02T01:13:45;1.50;;;0.80;;
39434;SDS011;66825;51.880;-0.518;2024-03-02T01:16:11;1.08;;;0.70;;
39434;SDS011;66825;51.880;-0.518;2024-03-02T01:18:37;1.83;;;0.90;;
39434;SDS011;66825;51.880;-0.518;2024-03-02T01:21:02;1.70;;;0.80;;
39434;SDS011;66825;51.880;-0.518;2024-03-02T01:23:28;2.22;;;0.90;;
39434;SDS011;66825;51.880;-0.518;2024-03-02T01:25:53;1.38;;;0.80;;
39434;SDS011;66825;51.880;-0.518;2024-03-02T01:28:20;1.60;;;0.70;;
39434;SDS011;66825;51.880;-0.518;2024-03-02T01:30:48;1.35;;;0.75;;
39434;SDS011;66825;51.880;-0.518;2024-03-02T01:33:14;2.25;;;0.90;;
39434;SDS011;66825;51.880;-0.518;2024-03-02T01:35:39;1.38;;;0.73;;
39434;SDS011;66825;51.880;-0.518;2024-03-02T01:38:05;1.48;;;0.77;;
39434;SDS011;66825;51.880;-0.518;2024-03-02T01:40:34;1.60;;;0.80;;
39434;SDS011;66825;51.880;-0.518;2024-03-02T01:42:59;2.03;;;0.85;;
39434;SDS011;66825;51.880;-0.518;2024-03-02T01:45:25;1.15;;;0.60;;
39434;SDS011;66825;51.880;-0.518;2024-03-02T01:47:51;2.05;;;0.90;;
39434;SDS011;66825;51.880;-0.518;2024-03-02T01:50:38;1.80;;;0.80;;
39434;SDS011;66825;51.880;-0.518;2024-03-02T01:53:03;1.35;;;0.65;;
39434;SDS011;66825;51.880;-0.518;2024-03-02T01:55:28;1.13;;;0.60;;
39434;SDS011;66825;51.880;-0.518;2024-03-02T01:57:55;1.63;;;0.70;;
39434;SDS011;66825;51.880;-0.518;2024-03-02T02:00:21;1.23;;;0.68;;
39434;SDS011;66825;51.880;-0.518;2024-03-02T02:02:49;1.98;;;0.73;;
39434;SDS011;66825;51.880;-0.518;2024-03-02T02:05:16;1.50;;;0.60;;
39434;SDS011;66825;51.880;-0.518;2024-03-02T02:07:42;1.48;;;0.75;;
39434;SDS011;66825;51.880;-0.518;2024-03-02T02:10:08;1.60;;;0.60;;
39434;SDS011;66825;51.880;-0.518;2024-03-02T02:12:34;0.90;;;0.60;;
39434;SDS011;66825;51.880;-0.518;2024-03-02T02:15:00;1.40;;;0.60;;
39434;SDS011;66825;51.880;-0.518;2024-03-02T02:17:26;1.50;;;0.70;;
39434;SDS011;66825;51.880;-0.518;2024-03-02T02:19:51;1.60;;;0.60;;
39434;SDS011;66825;51.880;-0.518;2024-03-02T02:22:16;1.92;;;0.70;;
39434;SDS011;66825;51.880;-0.518;2024-03-02T02:24:42;1.20;;;0.60;;
39434;SDS011;66825;51.880;-0.518;2024-03-02T02:27:08;1.45;;;0.70;;
39434;SDS011;66825;51.880;-0.518;2024-03-02T02:29:35;1.45;;;0.60;;
39434;SDS011;66825;51.880;-0.518;2024-03-02T02:32:00;1.42;;;0.57;;
39434;SDS011;66825;51.880;-0.518;2024-03-02T02:34:26;1.45;;;0.63;;
39434;SDS011;66825;51.880;-0.518;2024-03-02T02:36:51;2.28;;;0.90;;
39434;SDS011;66825;51.880;-0.518;2024-03-02T02:39:18;1.35;;;0.50;;
39434;SDS011;66825;51.880;-0.518;2024-03-02T02:41:46;1.35;;;0.68;;
39434;SDS011;66825;51.880;-0.518;2024-03-02T02:44:11;1.23;;;0.65;;
39434;SDS011;66825;51.880;-0.518;2024-03-02T02:46:38;1.52;;;0.52;;
39434;SDS011;66825;51.880;-0.518;2024-03-02T02:49:04;1.55;;;0.63;;
39434;SDS011;66825;51.880;-0.518;2024-03-02T02:51:29;0.90;;;0.50;;
39434;SDS011;66825;51.880;-0.518;2024-03-02T02:53:55;1.52;;;0.65;;
39434;SDS011;66825;51.880;-0.518;2024-03-02T02:56:20;1.35;;;0.77;;
39434;SDS011;66825;51.880;-0.518;2024-03-02T02:58:46;1.15;;;0.60;;
39434;SDS011;66825;51.880;-0.518;2024-03-02T03:01:11;0.95;;;0.50;;
39434;SDS011;66825;51.880;-0.518;2024-03-02T03:03:36;1.23;;;0.60;;
39434;SDS011;66825;51.880;-0.518;2024-03-02T03:06:02;1.42;;;0.70;;
39434;SDS011;66825;51.880;-0.518;2024-03-02T03:08:28;1.05;;;0.52;;
39434;SDS011;66825;51.880;-0.518;2024-03-02T03:10:53;1.13;;;0.70;;
39434;SDS011;66825;51.880;-0.518;2024-03-02T03:13:19;1.48;;;0.50;;
39434;SDS011;66825;51.880;-0.518;2024-03-02T03:15:44;1.30;;;0.60;;
39434;SDS011;66825;51.880;-0.518;2024-03-02T03:18:10;1.98;;;0.60;;
39434;SDS011;66825;51.880;-0.518;2024-03-02T03:20:35;1.55;;;0.80;;
39434;SDS011;66825;51.880;-0.518;2024-03-02T03:23:01;1.75;;;0.70;;
39434;SDS011;66825;51.880;-0.518;2024-03-02T03:25:26;2.08;;;0.68;;
39434;SDS011;66825;51.880;-0.518;2024-03-02T03:27:52;1.30;;;0.70;;
39434;SDS011;66825;51.880;-0.518;2024-03-02T03:30:20;1.65;;;0.70;;
39434;SDS011;66825;51.880;-0.518;2024-03-02T03:32:45;1.40;;;0.50;;
39434;SDS011;66825;51.880;-0.518;2024-03-02T03:35:13;1.30;;;0.60;;
39434;SDS011;66825;51.880;-0.518;2024-03-02T03:37:40;1.40;;;0.50;;
39434;SDS011;66825;51.880;-0.518;2024-03-02T03:40:06;1.15;;;0.60;;
39434;SDS011;66825;51.880;-0.518;2024-03-02T03:42:38;1.10;;;0.50;;
39434;SDS011;66825;51.880;-0.518;2024-03-02T03:45:04;1.20;;;0.80;;
39434;SDS011;66825;51.880;-0.518;2024-03-02T03:47:33;0.85;;;0.43;;
39434;SDS011;66825;51.880;-0.518;2024-03-02T03:49:59;0.98;;;0.50;;
39434;SDS011;66825;51.880;-0.518;2024-03-02T03:52:24;1.20;;;0.50;;
39434;SDS011;66825;51.880;-0.518;2024-03-02T03:54:50;1.55;;;0.63;;
39434;SDS011;66825;51.880;-0.518;2024-03-02T03:57:15;1.02;;;0.60;;
39434;SDS011;66825;51.880;-0.518;2024-03-02T03:59:42;1.25;;;0.60;;
39434;SDS011;66825;51.880;-0.518;2024-03-02T04:02:08;1.40;;;0.60;;
39434;SDS011;66825;51.880;-0.518;2024-03-02T04:04:34;1.17;;;0.55;;
39434;SDS011;66825;51.880;-0.518;2024-03-02T04:07:00;0.90;;;0.50;;
39434;SDS011;66825;51.880;-0.518;2024-03-02T04:09:26;0.93;;;0.47;;
39434;SDS011;66825;51.880;-0.518;2024-03-02T04:11:52;1.13;;;0.60;;
39434;SDS011;66825;51.880;-0.518;2024-03-02T04:14:18;1.02;;;0.50;;
39434;SDS011;66825;51.880;-0.518;2024-03-02T04:16:43;1.30;;;0.50;;
39434;SDS011;66825;51.880;-0.518;2024-03-02T04:19:08;0.77;;;0.40;;
39434;SDS011;66825;51.880;-0.518;2024-03-02T04:21:34;1.02;;;0.40;;
39434;SDS011;66825;51.880;-0.518;2024-03-02T04:23:59;0.68;;;0.40;;
39434;SDS011;66825;51.880;-0.518;2024-03-02T04:26:25;0.90;;;0.40;;
39434;SDS011;66825;51.880;-0.518;2024-03-02T04:28:52;0.88;;;0.40;;
39434;SDS011;66825;51.880;-0.518;2024-03-02T04:31:17;1.23;;;0.50;;
39434;SDS011;66825;51.880;-0.518;2024-03-02T04:33:43;0.65;;;0.40;;
39434;SDS011;66825;51.880;-0.518;2024-03-02T04:36:08;0.98;;;0.40;;
39434;SDS011;66825;51.880;-0.518;2024-03-02T04:38:37;0.95;;;0.40;;
39434;SDS011;66825;51.880;-0.518;2024-03-02T04:41:04;0.80;;;0.32;;
39434;SDS011;66825;51.880;-0.518;2024-03-02T04:43:31;0.85;;;0.40;;
39434;SDS011;66825;51.880;-0.518;2024-03-02T04:45:57;1.15;;;0.50;;
39434;SDS011;66825;51.880;-0.518;2024-03-02T04:48:23;0.68;;;0.40;;
39434;SDS011;66825;51.880;-0.518;2024-03-02T04:50:48;1.02;;;0.35;;
39434;SDS011;66825;51.880;-0.518;2024-03-02T04:53:14;0.60;;;0.40;;
39434;SDS011;66825;51.880;-0.518;2024-03-02T04:55:39;0.88;;;0.35;;
39434;SDS011;66825;51.880;-0.518;2024-03-02T04:58:05;1.00;;;0.50;;
39434;SDS011;66825;51.880;-0.518;2024-03-02T05:00:31;1.55;;;0.50;;
39434;SDS011;66825;51.880;-0.518;2024-03-02T05:02:57;0.98;;;0.45;;
39434;SDS011;66825;51.880;-0.518;2024-03-02T05:05:22;0.70;;;0.40;;
39434;SDS011;66825;51.880;-0.518;2024-03-02T05:07:48;0.90;;;0.40;;
39434;SDS011;66825;51.880;-0.518;2024-03-02T05:10:13;0.85;;;0.40;;
39434;SDS011;66825;51.880;-0.518;2024-03-02T05:12:39;0.65;;;0.35;;
39434;SDS011;66825;51.880;-0.518;2024-03-02T05:15:08;1.58;;;0.40;;
39434;SDS011;66825;51.880;-0.518;2024-03-02T05:17:37;1.95;;;0.60;;
39434;SDS011;66825;51.880;-0.518;2024-03-02T05:20:07;0.60;;;0.30;;
39434;SDS011;66825;51.880;-0.518;2024-03-02T05:22:33;1.10;;;0.40;;
39434;SDS011;66825;51.880;-0.518;2024-03-02T05:24:59;1.10;;;0.50;;
39434;SDS011;66825;51.880;-0.518;2024-03-02T05:27:26;1.60;;;0.60;;
39434;SDS011;66825;51.880;-0.518;2024-03-02T05:29:52;1.45;;;0.43;;
39434;SDS011;66825;51.880;-0.518;2024-03-02T05:32:17;0.80;;;0.40;;
39434;SDS011;66825;51.880;-0.518;2024-03-02T05:34:43;1.15;;;0.43;;
39434;SDS011;66825;51.880;-0.518;2024-03-02T05:37:08;1.27;;;0.50;;
39434;SDS011;66825;51.880;-0.518;2024-03-02T05:39:33;1.02;;;0.50;;
39434;SDS011;66825;51.880;-0.518;2024-03-02T05:41:59;1.10;;;0.52;;
39434;SDS011;66825;51.880;-0.518;2024-03-02T05:44:24;0.88;;;0.50;;
39434;SDS011;66825;51.880;-0.518;2024-03-02T05:46:50;1.13;;;0.50;;
39434;SDS011;66825;51.880;-0.518;2024-03-02T05:49:15;1.17;;;0.52;;
39434;SDS011;66825;51.880;-0.518;2024-03-02T05:51:41;1.17;;;0.50;;
39434;SDS011;66825;51.880;-0.518;2024-03-02T05:54:06;1.60;;;0.60;;
39434;SDS011;66825;51.880;-0.518;2024-03-02T05:56:32;2.05;;;0.65;;
39434;SDS011;66825;51.880;-0.518;2024-03-02T05:58:58;1.00;;;0.40;;
39434;SDS011;66825;51.880;-0.518;2024-03-02T06:01:42;1.13;;;0.50;;
39434;SDS011;66825;51.880;-0.518;2024-03-02T06:04:09;1.05;;;0.52;;
39434;SDS011;66825;51.880;-0.518;2024-03-02T06:06:36;2.05;;;0.60;;
39434;SDS011;66825;51.880;-0.518;2024-03-02T06:09:02;1.67;;;0.52;;
39434;SDS011;66825;51.880;-0.518;2024-03-02T06:11:37;1.98;;;0.50;;
39434;SDS011;66825;51.880;-0.518;2024-03-02T06:14:04;3.05;;;0.73;;
39434;SDS011;66825;51.880;-0.518;2024-03-02T06:16:30;1.52;;;0.50;;
39434;SDS011;66825;51.880;-0.518;2024-03-02T06:18:57;1.67;;;0.60;;
39434;SDS011;66825;51.880;-0.518;2024-03-02T06:21:24;1.98;;;0.50;;
39434;SDS011;66825;51.880;-0.518;2024-03-02T06:23:50;1.70;;;0.90;;
39434;SDS011;66825;51.880;-0.518;2024-03-02T06:26:15;1.73;;;0.70;;
39434;SDS011;66825;51.880;-0.518;2024-03-02T06:28:41;3.28;;;0.77;;
39434;SDS011;66825;51.880;-0.518;2024-03-02T06:31:08;2.20;;;0.50;;
39434;SDS011;66825;51.880;-0.518;2024-03-02T06:33:33;1.23;;;0.60;;
39434;SDS011;66825;51.880;-0.518;2024-03-02T06:35:59;2.47;;;0.80;;
39434;SDS011;66825;51.880;-0.518;2024-03-02T06:38:24;3.28;;;1.13;;
39434;SDS011;66825;51.880;-0.518;2024-03-02T06:40:50;1.58;;;0.70;;
39434;SDS011;66825;51.880;-0.518;2024-03-02T06:43:15;3.65;;;0.55;;
39434;SDS011;66825;51.880;-0.518;2024-03-02T06:45:40;1.88;;;0.70;;
39434;SDS011;66825;51.880;-0.518;2024-03-02T06:48:06;2.35;;;0.77;;
39434;SDS011;66825;51.880;-0.518;2024-03-02T06:50:32;1.83;;;0.65;;
39434;SDS011;66825;51.880;-0.518;2024-03-02T06:52:57;2.00;;;0.80;;
39434;SDS011;66825;51.880;-0.518;2024-03-02T06:55:23;2.13;;;0.70;;
39434;SDS011;66825;51.880;-0.518;2024-03-02T06:57:49;2.92;;;0.75;;
39434;SDS011;66825;51.880;-0.518;2024-03-02T07:00:17;3.60;;;0.90;;
39434;SDS011;66825;51.880;-0.518;2024-03-02T07:02:44;2.13;;;0.80;;
39434;SDS011;66825;51.880;-0.518;2024-03-02T07:05:10;3.25;;;0.98;;
39434;SDS011;66825;51.880;-0.518;2024-03-02T07:07:36;2.63;;;0.90;;
39434;SDS011;66825;51.880;-0.518;2024-03-02T07:10:05;2.45;;;0.88;;
39434;SDS011;66825;51.880;-0.518;2024-03-02T07:12:32;2.28;;;0.70;;
39434;SDS011;66825;51.880;-0.518;2024-03-02T07:14:58;2.17;;;0.77;;
39434;SDS011;66825;51.880;-0.518;2024-03-02T07:17:29;1.42;;;0.60;;
39434;SDS011;66825;51.880;-0.518;2024-03-02T07:19:57;3.55;;;1.00;;
39434;SDS011;66825;51.880;-0.518;2024-03-02T07:22:23;1.27;;;0.57;;
39434;SDS011;66825;51.880;-0.518;2024-03-02T07:24:49;1.95;;;0.68;;
39434;SDS011;66825;51.880;-0.518;2024-03-02T07:27:15;1.75;;;0.70;;
39434;SDS011;66825;51.880;-0.518;2024-03-02T07:29:41;1.90;;;0.68;;
39434;SDS011;66825;51.880;-0.518;2024-03-02T07:32:07;2.42;;;0.98;;
39434;SDS011;66825;51.880;-0.518;2024-03-02T07:34:33;2.58;;;0.70;;
39434;SDS011;66825;51.880;-0.518;2024-03-02T07:36:59;2.70;;;0.85;;
39434;SDS011;66825;51.880;-0.518;2024-03-02T07:39:24;2.28;;;0.85;;
39434;SDS011;66825;51.880;-0.518;2024-03-02T07:41:50;2.15;;;0.65;;
39434;SDS011;66825;51.880;-0.518;2024-03-02T07:44:16;2.97;;;0.90;;
39434;SDS011;66825;51.880;-0.518;2024-03-02T07:46:44;2.35;;;0.70;;
39434;SDS011;66825;51.880;-0.518;2024-03-02T07:49:11;2.78;;;0.98;;
39434;SDS011;66825;51.880;-0.518;2024-03-02T07:51:38;2.85;;;0.80;;
39434;SDS011;66825;51.880;-0.518;2024-03-02T07:54:04;3.55;;;0.80;;
39434;SDS011;66825;51.880;-0.518;2024-03-02T07:56:29;2.20;;;0.80;;
39434;SDS011;66825;51.880;-0.518;2024-03-02T07:58:55;2.13;;;0.80;;
39434;SDS011;66825;51.880;-0.518;2024-03-02T08:01:22;3.00;;;0.93;;
39434;SDS011;66825;51.880;-0.518;2024-03-02T08:03:48;3.33;;;0.80;;
39434;SDS011;66825;51.880;-0.518;2024-03-02T08:06:15;1.80;;;0.80;;
39434;SDS011;66825;51.880;-0.518;2024-03-02T08:08:46;2.17;;;0.80;;
39434;SDS011;66825;51.880;-0.518;2024-03-02T08:11:12;1.95;;;0.77;;
39434;SDS011;66825;51.880;-0.518;2024-03-02T08:13:37;2.10;;;0.80;;
39434;SDS011;66825;51.880;-0.518;2024-03-02T08:16:03;2.25;;;0.60;;
39434;SDS011;66825;51.880;-0.518;2024-03-02T08:18:32;2.53;;;0.80;;
39434;SDS011;66825;51.880;-0.518;2024-03-02T08:20:58;2.05;;;0.70;;
39434;SDS011;66825;51.880;-0.518;2024-03-02T08:23:23;2.67;;;0.90;;
39434;SDS011;66825;51.880;-0.518;2024-03-02T08:25:49;2.50;;;0.75;;
39434;SDS011;66825;51.880;-0.518;2024-03-02T08:28:14;1.58;;;0.60;;
39434;SDS011;66825;51.880;-0.518;2024-03-02T08:30:40;1.45;;;0.68;;
39434;SDS011;66825;51.880;-0.518;2024-03-02T08:33:05;1.90;;;0.65;;
39434;SDS011;66825;51.880;-0.518;2024-03-02T08:35:31;2.08;;;0.70;;
39434;SDS011;66825;51.880;-0.518;2024-03-02T08:38:00;1.35;;;0.50;;
39434;SDS011;66825;51.880;-0.518;2024-03-02T08:40:28;1.65;;;0.43;;
39434;SDS011;66825;51.880;-0.518;2024-03-02T08:42:53;1.88;;;0.73;;
39434;SDS011;66825;51.880;-0.518;2024-03-02T08:45:19;1.83;;;0.63;;
39434;SDS011;66825;51.880;-0.518;2024-03-02T08:47:45;1.85;;;0.82;;
39434;SDS011;66825;51.880;-0.518;2024-03-02T08:50:11;1.42;;;0.60;;
39434;SDS011;66825;51.880;-0.518;2024-03-02T08:52:37;1.20;;;0.60;;
39434;SDS011;66825;51.880;-0.518;2024-03-02T08:55:03;1.45;;;0.60;;
39434;SDS011;66825;51.880;-0.518;2024-03-02T08:57:28;1.23;;;0.57;;
39434;SDS011;66825;51.880;-0.518;2024-03-02T08:59:54;1.77;;;0.73;;
39434;SDS011;66825;51.880;-0.518;2024-03-02T09:02:20;1.05;;;0.50;;
39434;SDS011;66825;51.880;-0.518;2024-03-02T09:04:45;1.75;;;0.68;;
39434;SDS011;66825;51.880;-0.518;2024-03-02T09:07:11;1.63;;;0.60;;
39434;SDS011;66825;51.880;-0.518;2024-03-02T09:09:36;1.13;;;0.50;;
39434;SDS011;66825;51.880;-0.518;2024-03-02T09:12:03;1.80;;;0.80;;
39434;SDS011;66825;51.880;-0.518;2024-03-02T09:14:29;1.15;;;0.50;;
39434;SDS011;66825;51.880;-0.518;2024-03-02T09:16:55;1.70;;;0.65;;
39434;SDS011;66825;51.880;-0.518;2024-03-02T09:19:20;1.35;;;0.63;;
39434;SDS011;66825;51.880;-0.518;2024-03-02T09:21:46;1.40;;;0.55;;
39434;SDS011;66825;51.880;-0.518;2024-03-02T09:24:11;2.03;;;0.60;;
39434;SDS011;66825;51.880;-0.518;2024-03-02T09:26:37;1.48;;;0.50;;
39434;SDS011;66825;51.880;-0.518;2024-03-02T09:29:03;1.27;;;0.50;;
39434;SDS011;66825;51.880;-0.518;2024-03-02T09:31:28;2.17;;;0.70;;
39434;SDS011;66825;51.880;-0.518;2024-03-02T09:33:54;2.25;;;0.57;;
39434;SDS011;66825;51.880;-0.518;2024-03-02T09:36:19;1.27;;;0.65;;
39434;SDS011;66825;51.880;-0.518;2024-03-02T09:38:47;1.27;;;0.52;;
39434;SDS011;66825;51.880;-0.518;2024-03-02T09:41:13;1.02;;;0.60;;
39434;SDS011;66825;51.880;-0.518;2024-03-02T09:43:39;1.60;;;0.50;;
39434;SDS011;66825;51.880;-0.518;2024-03-02T09:46:05;1.42;;;0.50;;
39434;SDS011;66825;51.880;-0.518;2024-03-02T09:48:34;0.90;;;0.50;;
39434;SDS011;66825;51.880;-0.518;2024-03-02T09:51:00;1.23;;;0.30;;
39434;SDS011;66825;51.880;-0.518;2024-03-02T09:53:28;1.42;;;0.50;;
39434;SDS011;66825;51.880;-0.518;2024-03-02T09:55:56;3.43;;;0.80;;
39434;SDS011;66825;51.880;-0.518;2024-03-02T09:58:22;1.00;;;0.40;;
39434;SDS011;66825;51.880;-0.518;2024-03-02T10:00:47;1.10;;;0.40;;
39434;SDS011;66825;51.880;-0.518;2024-03-02T10:03:14;1.35;;;0.55;;
39434;SDS011;66825;51.880;-0.518;2024-03-02T10:05:40;1.58;;;0.47;;
39434;SDS011;66825;51.880;-0.518;2024-03-02T10:08:05;1.42;;;0.40;;
39434;SDS011;66825;51.880;-0.518;2024-03-02T10:10:49;1.92;;;0.60;;
39434;SDS011;66825;51.880;-0.518;2024-03-02T10:13:15;1.98;;;0.60;;
39434;SDS011;66825;51.880;-0.518;2024-03-02T10:15:41;1.17;;;0.40;;
39434;SDS011;66825;51.880;-0.518;2024-03-02T10:18:10;1.50;;;0.50;;
39434;SDS011;66825;51.880;-0.518;2024-03-02T10:20:41;1.48;;;0.40;;
39434;SDS011;66825;51.880;-0.518;2024-03-02T10:23:10;1.10;;;0.50;;
39434;SDS011;66825;51.880;-0.518;2024-03-02T10:25:39;1.05;;;0.40;;
39434;SDS011;66825;51.880;-0.518;2024-03-02T10:28:05;1.33;;;0.30;;
39434;SDS011;66825;51.880;-0.518;2024-03-02T10:30:31;0.60;;;0.32;;
39434;SDS011;66825;51.880;-0.518;2024-03-02T10:32:56;0.85;;;0.30;;
39434;SDS011;66825;51.880;-0.518;2024-03-02T10:35:22;0.93;;;0.40;;
39434;SDS011;66825;51.880;-0.518;2024-03-02T10:37:51;1.13;;;0.50;;
39434;SDS011;66825;51.880;-0.518;2024-03-02T10:40:18;1.08;;;0.50;;
39434;SDS011;66825;51.880;-0.518;2024-03-02T10:42:46;1.55;;;0.40;;
39434;SDS011;66825;51.880;-0.518;2024-03-02T10:45:12;1.10;;;0.40;;
39434;SDS011;66825;51.880;-0.518;2024-03-02T10:47:41;1.42;;;0.68;;
39434;SDS011;66825;51.880;-0.518;2024-03-02T10:50:08;0.57;;;0.20;;
39434;SDS011;66825;51.880;-0.518;2024-03-02T10:52:34;1.20;;;0.40;;
39434;SDS011;66825;51.880;-0.518;2024-03-02T10:55:00;1.70;;;0.45;;
39434;SDS011;66825;51.880;-0.518;2024-03-02T10:57:26;1.30;;;0.40;;
39434;SDS011;66825;51.880;-0.518;2024-03-02T10:59:52;1.38;;;0.45;;
39434;SDS011;66825;51.880;-0.518;2024-03-02T11:02:22;0.60;;;0.30;;
39434;SDS011;66825;51.880;-0.518;2024-03-02T11:04:50;1.13;;;0.40;;
39434;SDS011;66825;51.880;-0.518;2024-03-02T11:07:19;1.10;;;0.30;;
39434;SDS011;66825;51.880;-0.518;2024-03-02T11:09:50;0.88;;;0.40;;
39434;SDS011;66825;51.880;-0.518;2024-03-02T11:12:35;0.85;;;0.40;;
39434;SDS011;66825;51.880;-0.518;2024-03-02T11:15:04;0.70;;;0.30;;
39434;SDS011;66825;51.880;-0.518;2024-03-02T11:17:36;1.20;;;0.30;;
39434;SDS011;66825;51.880;-0.518;2024-03-02T11:20:03;0.40;;;0.20;;
39434;SDS011;66825;51.880;-0.518;2024-03-02T11:22:29;0.95;;;0.30;;
39434;SDS011;66825;51.880;-0.518;2024-03-02T11:24:55;0.88;;;0.30;;
39434;SDS011;66825;51.880;-0.518;2024-03-02T11:32:58;1.17;;;0.40;;
39434;SDS011;66825;51.880;-0.518;2024-03-02T11:35:25;1.45;;;0.50;;
39434;SDS011;66825;51.880;-0.518;2024-03-02T11:37:51;0.98;;;0.38;;
39434;SDS011;66825;51.880;-0.518;2024-03-02T11:40:23;1.17;;;0.40;;
39434;SDS011;66825;51.880;-0.518;2024-03-02T11:42:50;1.60;;;0.40;;
39434;SDS011;66825;51.880;-0.518;2024-03-02T11:45:24;0.52;;;0.32;;
39434;SDS011;66825;51.880;-0.518;2024-03-02T11:47:53;0.65;;;0.38;;
39434;SDS011;66825;51.880;-0.518;2024-03-02T11:53:14;0.65;;;0.35;;
39434;SDS011;66825;51.880;-0.518;2024-03-02T11:55:40;0.82;;;0.40;;
39434;SDS011;66825;51.880;-0.518;2024-03-02T11:58:09;1.38;;;0.40;;
39434;SDS011;66825;51.880;-0.518;2024-03-02T12:00:35;1.42;;;0.30;;
39434;SDS011;66825;51.880;-0.518;2024-03-02T12:03:01;0.57;;;0.20;;
39434;SDS011;66825;51.880;-0.518;2024-03-02T12:05:28;0.68;;;0.28;;
39434;SDS011;66825;51.880;-0.518;2024-03-02T12:07:56;0.52;;;0.30;;
39434;SDS011;66825;51.880;-0.518;2024-03-02T12:10:22;1.02;;;0.40;;
39434;SDS011;66825;51.880;-0.518;2024-03-02T12:12:49;0.70;;;0.30;;
39434;SDS011;66825;51.880;-0.518;2024-03-02T12:15:26;1.35;;;0.20;;
39434;SDS011;66825;51.880;-0.518;2024-03-02T12:17:56;0.80;;;0.30;;
39434;SDS011;66825;51.880;-0.518;2024-03-02T12:20:23;0.75;;;0.30;;
39434;SDS011;66825;51.880;-0.518;2024-03-02T12:22:50;0.60;;;0.30;;
39434;SDS011;66825;51.880;-0.518;2024-03-02T12:25:17;0.60;;;0.30;;
39434;SDS011;66825;51.880;-0.518;2024-03-02T12:27:44;0.50;;;0.20;;
39434;SDS011;66825;51.880;-0.518;2024-03-02T12:30:11;0.68;;;0.30;;
39434;SDS011;66825;51.880;-0.518;2024-03-02T12:32:39;0.65;;;0.40;;
39434;SDS011;66825;51.880;-0.518;2024-03-02T12:35:05;1.13;;;0.40;;
39434;SDS011;66825;51.880;-0.518;2024-03-02T12:37:31;1.63;;;0.32;;
39434;SDS011;66825;51.880;-0.518;2024-03-02T12:39:57;0.93;;;0.43;;
39434;SDS011;66825;51.880;-0.518;2024-03-02T12:42:23;1.05;;;0.40;;
39434;SDS011;66825;51.880;-0.518;2024-03-02T12:44:51;0.80;;;0.40;;
39434;SDS011;66825;51.880;-0.518;2024-03-02T12:47:19;0.98;;;0.30;;
39434;SDS011;66825;51.880;-0.518;2024-03-02T12:49:45;0.80;;;0.30;;
39434;SDS011;66825;51.880;-0.518;2024-03-02T12:52:13;0.45;;;0.22;;
39434;SDS011;66825;51.880;-0.518;2024-03-02T12:54:39;0.82;;;0.40;;
39434;SDS011;66825;51.880;-0.518;2024-03-02T12:57:04;0.57;;;0.30;;
39434;SDS011;66825;51.880;-0.518;2024-03-02T12:59:30;0.80;;;0.20;;
39434;SDS011;66825;51.880;-0.518;2024-03-02T13:01:56;0.45;;;0.30;;
39434;SDS011;66825;51.880;-0.518;2024-03-02T13:04:27;0.80;;;0.20;;
39434;SDS011;66825;51.880;-0.518;2024-03-02T13:06:54;0.60;;;0.30;;
39434;SDS011;66825;51.880;-0.518;2024-03-02T13:09:22;1.10;;;0.40;;
39434;SDS011;66825;51.880;-0.518;2024-03-02T13:11:49;0.60;;;0.22;;
39434;SDS011;66825;51.880;-0.518;2024-03-02T13:14:14;0.40;;;0.20;;
39434;SDS011;66825;51.880;-0.518;2024-03-02T13:16:44;0.45;;;0.30;;
39434;SDS011;66825;51.880;-0.518;2024-03-02T13:19:12;0.55;;;0.30;;
39434;SDS011;66825;51.880;-0.518;2024-03-02T13:21:38;0.93;;;0.30;;
39434;SDS011;66825;51.880;-0.518;2024-03-02T13:24:04;1.02;;;0.40;;
39434;SDS011;66825;51.880;-0.518;2024-03-02T13:26:30;1.00;;;0.32;;
39434;SDS011;66825;51.880;-0.518;2024-03-02T13:28:56;0.60;;;0.30;;
39434;SDS011;66825;51.880;-0.518;2024-03-02T13:31:21;0.82;;;0.30;;
39434;SDS011;66825;51.880;-0.518;2024-03-02T13:33:47;0.52;;;0.30;;
39434;SDS011;66825;51.880;-0.518;2024-03-02T13:36:13;0.38;;;0.20;;
39434;SDS011;66825;51.880;-0.518;2024-03-02T13:38:38;0.63;;;0.30;;
39434;SDS011;66825;51.880;-0.518;2024-03-02T13:41:03;0.73;;;0.20;;
39434;SDS011;66825;51.880;-0.518;2024-03-02T13:43:29;0.60;;;0.30;;
39434;SDS011;66825;51.880;-0.518;2024-03-02T13:45:57;0.60;;;0.35;;
39434;SDS011;66825;51.880;-0.518;2024-03-02T13:48:24;0.95;;;0.38;;
39434;SDS011;66825;51.880;-0.518;2024-03-02T13:50:51;0.75;;;0.30;;
39434;SDS011;66825;51.880;-0.518;2024-03-02T13:53:18;0.70;;;0.30;;
39434;SDS011;66825;51.880;-0.518;2024-03-02T13:55:44;0.30;;;0.20;;
39434;SDS011;66825;51.880;-0.518;2024-03-02T13:58:10;0.80;;;0.30;;
39434;SDS011;66825;51.880;-0.518;2024-03-02T14:00:36;1.15;;;0.30;;
39434;SDS011;66825;51.880;-0.518;2024-03-02T14:03:03;0.80;;;0.30;;
39434;SDS011;66825;51.880;-0.518;2024-03-02T14:05:29;0.45;;;0.20;;
39434;SDS011;66825;51.880;-0.518;2024-03-02T14:07:54;0.52;;;0.30;;
39434;SDS011;66825;51.880;-0.518;2024-03-02T14:10:19;0.50;;;0.20;;
39434;SDS011;66825;51.880;-0.518;2024-03-02T14:12:48;0.65;;;0.22;;
39434;SDS011;66825;51.880;-0.518;2024-03-02T14:15:13;0.65;;;0.28;;
39434;SDS011;66825;51.880;-0.518;2024-03-02T14:17:39;0.45;;;0.20;;
39434;SDS011;66825;51.880;-0.518;2024-03-02T14:20:05;0.40;;;0.20;;
39434;SDS011;66825;51.880;-0.518;2024-03-02T14:22:31;0.63;;;0.20;;
39434;SDS011;66825;51.880;-0.518;2024-03-02T14:24:57;0.60;;;0.25;;
39434;SDS011;66825;51.880;-0.518;2024-03-02T14:27:22;0.52;;;0.30;;
39434;SDS011;66825;51.880;-0.518;2024-03-02T14:29:48;0.32;;;0.17;;
39434;SDS011;66825;51.880;-0.518;2024-03-02T14:32:13;1.27;;;0.30;;
39434;SDS011;66825;51.880;-0.518;2024-03-02T14:34:39;0.40;;;0.20;;
39434;SDS011;66825;51.880;-0.518;2024-03-02T14:37:04;1.55;;;0.25;;
39434;SDS011;66825;51.880;-0.518;2024-03-02T14:39:30;0.50;;;0.20;;